TAP172 LIBD-LIEO
Flight info
| Callsign | TAP172 |
|---|---|
| Flight time | N/A |
| Altitude | 36000 |
| Route | TOPNO DCT DOGUS DCT EKTOL DCT ROXAN DCT ATNET |
| Aircraft | A321/M-SDE3FGHIRWY/LB1 |
Departure
| Time | 2026-04-23 07:25 |
|---|---|
| Airport | Bari Karol Wojtyła International Airport (LIBD) |
Arrival
| Time | N/A |
|---|---|
| Airport | Olbia Costa Smeralda Airport (LIEO) |
| Time | Latitude | Longitude | Altitude | Speed | Heading |
|---|---|---|---|---|---|
| 2026-04-23 07:07 | 41.13560 | 16.76456 | 137 ft | 0 kts | 160° |
| 2026-04-23 07:17 | 41.13572 | 16.76450 | 137 ft | 4 kts | 160° |
| 2026-04-23 07:17 | 41.13596 | 16.76439 | 137 ft | 4 kts | 166° |
| 2026-04-23 07:17 | 41.13614 | 16.76435 | 137 ft | 2 kts | 184° |
| 2026-04-23 07:17 | 41.13626 | 16.76437 | 137 ft | 2 kts | 224° |
| 2026-04-23 07:18 | 41.13633 | 16.76449 | 137 ft | 2 kts | 244° |
| 2026-04-23 07:18 | 41.13637 | 16.76462 | 137 ft | 2 kts | 249° |
| 2026-04-23 07:18 | 41.13640 | 16.76471 | 137 ft | 0 kts | 250° |
| 2026-04-23 07:19 | 41.13640 | 16.76470 | 136 ft | 0 kts | 250° |
| 2026-04-23 07:19 | 41.13639 | 16.76469 | 136 ft | 0 kts | 250° |
| 2026-04-23 07:20 | 41.13633 | 16.76446 | 136 ft | 9 kts | 250° |
| 2026-04-23 07:20 | 41.13608 | 16.76357 | 137 ft | 11 kts | 249° |
| 2026-04-23 07:20 | 41.13580 | 16.76260 | 137 ft | 12 kts | 249° |
| 2026-04-23 07:20 | 41.13555 | 16.76154 | 137 ft | 12 kts | 269° |
| 2026-04-23 07:21 | 41.13605 | 16.76061 | 136 ft | 13 kts | 320° |
| 2026-04-23 07:21 | 41.13632 | 16.75951 | 137 ft | 14 kts | 258° |
| 2026-04-23 07:21 | 41.13601 | 16.75831 | 138 ft | 13 kts | 250° |
| 2026-04-23 07:21 | 41.13567 | 16.75712 | 138 ft | 14 kts | 249° |
| 2026-04-23 07:22 | 41.13531 | 16.75584 | 139 ft | 15 kts | 249° |
| 2026-04-23 07:22 | 41.13498 | 16.75469 | 143 ft | 13 kts | 249° |
| 2026-04-23 07:22 | 41.13465 | 16.75356 | 142 ft | 14 kts | 249° |
| 2026-04-23 07:22 | 41.13431 | 16.75233 | 143 ft | 14 kts | 249° |
| 2026-04-23 07:23 | 41.13399 | 16.75121 | 147 ft | 12 kts | 250° |
| 2026-04-23 07:23 | 41.13371 | 16.75023 | 148 ft | 12 kts | 249° |
| 2026-04-23 07:23 | 41.13346 | 16.74914 | 148 ft | 13 kts | 268° |
| 2026-04-23 07:23 | 41.13383 | 16.74802 | 147 ft | 14 kts | 300° |
| 2026-04-23 07:24 | 41.13472 | 16.74755 | 141 ft | 17 kts | 39° |
| 2026-04-23 07:24 | 41.13515 | 16.74874 | 139 ft | 0 kts | 73° |
| 2026-04-23 07:24 | 41.13515 | 16.74876 | 139 ft | 0 kts | 73° |
| 2026-04-23 07:24 | 41.13516 | 16.74880 | 139 ft | 1 kts | 73° |
| 2026-04-23 07:25 | 41.13517 | 16.74886 | 139 ft | 1 kts | 73° |
| 2026-04-23 07:25 | 41.13550 | 16.75000 | 139 ft | 54 kts | 69° |
| 2026-04-23 07:25 | 41.13828 | 16.75979 | 149 ft | 164 kts | 69° |
| 2026-04-23 07:25 | 41.14274 | 16.77557 | 900 ft | 195 kts | 69° |
| 2026-04-23 07:26 | 41.14747 | 16.79253 | 2226 ft | 199 kts | 69° |
| 2026-04-23 07:26 | 41.15243 | 16.81032 | 3145 ft | 210 kts | 69° |
| 2026-04-23 07:26 | 41.15782 | 16.82945 | 3559 ft | 235 kts | 69° |
| 2026-04-23 07:26 | 41.16384 | 16.85071 | 4319 ft | 253 kts | 69° |
| 2026-04-23 07:27 | 41.17010 | 16.87280 | 5405 ft | 258 kts | 69° |
| 2026-04-23 07:27 | 41.17649 | 16.89535 | 6531 ft | 263 kts | 69° |
| 2026-04-23 07:27 | 41.18296 | 16.91827 | 7631 ft | 267 kts | 70° |
| 2026-04-23 07:27 | 41.18712 | 16.94250 | 8682 ft | 273 kts | 85° |
| 2026-04-23 07:28 | 41.18717 | 16.96787 | 9728 ft | 277 kts | 91° |
| 2026-04-23 07:28 | 41.18559 | 16.99349 | 10740 ft | 281 kts | 102° |
| 2026-04-23 07:28 | 41.17896 | 17.01803 | 11719 ft | 286 kts | 118° |
| 2026-04-23 07:28 | 41.16726 | 17.03951 | 12705 ft | 290 kts | 135° |
| 2026-04-23 07:29 | 41.15264 | 17.05816 | 13678 ft | 293 kts | 136° |
| 2026-04-23 07:29 | 41.13754 | 17.07664 | 14610 ft | 298 kts | 143° |
| 2026-04-23 07:29 | 41.11882 | 17.08833 | 15477 ft | 302 kts | 169° |
| 2026-04-23 07:29 | 41.09812 | 17.08820 | 16329 ft | 306 kts | 194° |
| 2026-04-23 07:30 | 41.07909 | 17.07590 | 17181 ft | 309 kts | 220° |
| 2026-04-23 07:30 | 41.06372 | 17.05580 | 18051 ft | 312 kts | 226° |
| 2026-04-23 07:30 | 41.04875 | 17.03480 | 18899 ft | 316 kts | 231° |
| 2026-04-23 07:30 | 41.03665 | 17.01031 | 19698 ft | 320 kts | 244° |
| 2026-04-23 07:31 | 41.02897 | 16.98205 | 20152 ft | 337 kts | 258° |
| 2026-04-23 07:31 | 41.02575 | 16.95024 | 20333 ft | 361 kts | 264° |
| 2026-04-23 07:31 | 41.02304 | 16.91631 | 20709 ft | 376 kts | 264° |
| 2026-04-23 07:31 | 41.02019 | 16.88160 | 21351 ft | 382 kts | 264° |
| 2026-04-23 07:32 | 41.01726 | 16.84642 | 22030 ft | 387 kts | 264° |
| 2026-04-23 07:32 | 41.01425 | 16.81085 | 22700 ft | 391 kts | 263° |
| 2026-04-23 07:32 | 41.01116 | 16.77489 | 23351 ft | 395 kts | 263° |
| 2026-04-23 07:32 | 41.00800 | 16.73863 | 23981 ft | 399 kts | 263° |
| 2026-04-23 07:33 | 41.00482 | 16.70194 | 24590 ft | 403 kts | 263° |
| 2026-04-23 07:33 | 41.00159 | 16.66487 | 25175 ft | 407 kts | 263° |
| 2026-04-23 07:33 | 40.99833 | 16.62748 | 25741 ft | 411 kts | 263° |
| 2026-04-23 07:33 | 40.99502 | 16.58977 | 26294 ft | 415 kts | 263° |
| 2026-04-23 07:34 | 40.99169 | 16.55167 | 26841 ft | 418 kts | 263° |
| 2026-04-23 07:34 | 40.98830 | 16.51324 | 27373 ft | 422 kts | 263° |
| 2026-04-23 07:34 | 40.98489 | 16.47501 | 27878 ft | 426 kts | 263° |
| 2026-04-23 07:34 | 40.98140 | 16.43601 | 28370 ft | 429 kts | 263° |
| 2026-04-23 07:35 | 40.97786 | 16.39665 | 28848 ft | 433 kts | 263° |
| 2026-04-23 07:35 | 40.97429 | 16.35687 | 29308 ft | 436 kts | 263° |
| 2026-04-23 07:35 | 40.97070 | 16.31689 | 29764 ft | 440 kts | 263° |
| 2026-04-23 07:35 | 40.96707 | 16.27657 | 30200 ft | 443 kts | 263° |
| 2026-04-23 07:36 | 40.96342 | 16.23597 | 30631 ft | 446 kts | 263° |
| 2026-04-23 07:36 | 40.95970 | 16.19516 | 31068 ft | 448 kts | 263° |
| 2026-04-23 07:36 | 40.95596 | 16.15413 | 31588 ft | 448 kts | 263° |
| 2026-04-23 07:36 | 40.95446 | 16.11309 | 32177 ft | 447 kts | 272° |
| 2026-04-23 07:37 | 40.95775 | 16.07235 | 32731 ft | 446 kts | 281° |
| 2026-04-23 07:37 | 40.96451 | 16.03242 | 33287 ft | 444 kts | 283° |
| 2026-04-23 07:37 | 40.97138 | 15.99263 | 33842 ft | 443 kts | 283° |
| 2026-04-23 07:37 | 40.97818 | 15.95290 | 34383 ft | 442 kts | 282° |
| 2026-04-23 07:38 | 40.98491 | 15.91328 | 34915 ft | 441 kts | 282° |
| 2026-04-23 07:38 | 40.99157 | 15.87371 | 35433 ft | 440 kts | 282° |
| 2026-04-23 07:38 | 40.99817 | 15.83419 | 35865 ft | 440 kts | 282° |
| 2026-04-23 07:39 | 41.00912 | 15.76837 | 36008 ft | 432 kts | 282° |
| 2026-04-23 07:39 | 41.02201 | 15.69138 | 36007 ft | 427 kts | 282° |
| 2026-04-23 07:40 | 41.03488 | 15.61470 | 36008 ft | 427 kts | 282° |
| 2026-04-23 07:40 | 41.04765 | 15.53789 | 36009 ft | 426 kts | 282° |
| 2026-04-23 07:41 | 41.06035 | 15.46113 | 36008 ft | 428 kts | 282° |
| 2026-04-23 07:41 | 41.07305 | 15.38408 | 36011 ft | 428 kts | 282° |
| 2026-04-23 07:42 | 41.08574 | 15.30696 | 36015 ft | 428 kts | 282° |
| 2026-04-23 07:42 | 41.09832 | 15.22993 | 36010 ft | 428 kts | 282° |
| 2026-04-23 07:43 | 41.10656 | 15.15202 | 36013 ft | 427 kts | 269° |
| 2026-04-23 07:43 | 41.10256 | 15.07340 | 36015 ft | 427 kts | 266° |
| 2026-04-23 07:44 | 41.09831 | 14.99488 | 36019 ft | 427 kts | 266° |
| 2026-04-23 07:44 | 41.09404 | 14.91641 | 36019 ft | 427 kts | 266° |
| 2026-04-23 07:45 | 41.08972 | 14.83805 | 36019 ft | 426 kts | 266° |
| 2026-04-23 07:45 | 41.08527 | 14.75967 | 36019 ft | 426 kts | 265° |
| 2026-04-23 07:46 | 41.08080 | 14.68144 | 36017 ft | 426 kts | 265° |
| 2026-04-23 07:46 | 41.07705 | 14.61644 | 36011 ft | 426 kts | 265° |
| 2026-04-23 07:47 | 41.07299 | 14.54631 | 36012 ft | 426 kts | 265° |
| 2026-04-23 07:47 | 41.06840 | 14.46805 | 36010 ft | 426 kts | 265° |
| 2026-04-23 07:48 | 41.06379 | 14.38975 | 36011 ft | 426 kts | 265° |
| 2026-04-23 07:48 | 41.05906 | 14.31178 | 36016 ft | 425 kts | 265° |
| 2026-04-23 07:49 | 41.05430 | 14.23376 | 36018 ft | 425 kts | 265° |
| 2026-04-23 07:49 | 41.04948 | 14.15586 | 36018 ft | 424 kts | 265° |
| 2026-04-23 07:50 | 41.04462 | 14.07803 | 36017 ft | 424 kts | 265° |
| 2026-04-23 07:50 | 41.03978 | 14.00024 | 36015 ft | 424 kts | 265° |
| 2026-04-23 07:51 | 41.03489 | 13.92246 | 36013 ft | 423 kts | 265° |
| 2026-04-23 07:51 | 41.02993 | 13.84478 | 36011 ft | 423 kts | 265° |
| 2026-04-23 07:52 | 41.02485 | 13.76713 | 36009 ft | 423 kts | 265° |
| 2026-04-23 07:52 | 41.01971 | 13.68949 | 36007 ft | 423 kts | 265° |
| 2026-04-23 07:53 | 41.01450 | 13.61185 | 36005 ft | 423 kts | 265° |
| 2026-04-23 07:53 | 41.00930 | 13.53428 | 36008 ft | 423 kts | 265° |
| 2026-04-23 07:54 | 41.00409 | 13.45667 | 36007 ft | 423 kts | 265° |
| 2026-04-23 07:54 | 40.99878 | 13.37907 | 36008 ft | 423 kts | 265° |
| 2026-04-23 07:55 | 40.99344 | 13.30153 | 36009 ft | 423 kts | 265° |
| 2026-04-23 07:55 | 40.98811 | 13.22396 | 36009 ft | 423 kts | 265° |
| 2026-04-23 07:56 | 40.98267 | 13.14644 | 36007 ft | 423 kts | 264° |
| 2026-04-23 07:56 | 40.97717 | 13.06888 | 36012 ft | 424 kts | 264° |
| 2026-04-23 07:57 | 40.97160 | 12.99122 | 36011 ft | 424 kts | 264° |
| 2026-04-23 07:57 | 40.96601 | 12.91362 | 36012 ft | 423 kts | 264° |
| 2026-04-23 07:58 | 40.96029 | 12.83606 | 36012 ft | 423 kts | 264° |
| 2026-04-23 07:58 | 40.95455 | 12.75864 | 36012 ft | 423 kts | 264° |
| 2026-04-23 07:59 | 40.94876 | 12.68123 | 36011 ft | 423 kts | 264° |
| 2026-04-23 07:59 | 40.94293 | 12.60432 | 36006 ft | 423 kts | 264° |
| 2026-04-23 08:00 | 40.93708 | 12.52684 | 36005 ft | 423 kts | 264° |
| 2026-04-23 08:00 | 40.93116 | 12.44949 | 36003 ft | 423 kts | 264° |
| 2026-04-23 08:01 | 40.92516 | 12.37225 | 36001 ft | 422 kts | 264° |
| 2026-04-23 08:01 | 40.91918 | 12.29503 | 35997 ft | 422 kts | 264° |
| 2026-04-23 08:02 | 40.91323 | 12.21919 | 35998 ft | 422 kts | 264° |
| 2026-04-23 08:02 | 40.90715 | 12.14301 | 35996 ft | 422 kts | 264° |
| 2026-04-23 08:03 | 40.90103 | 12.06631 | 35997 ft | 422 kts | 264° |
| 2026-04-23 08:03 | 40.89586 | 12.00160 | 35998 ft | 422 kts | 264° |